sensor_id;sensor_type;location;lat;lon;timestamp;pressure;altitude;pressure_sealevel;temperature;humidity
34297;BME280;20564;42.902;25.336;2023-02-26T00:02:30;96026.97;;;12.97;60.24
34297;BME280;20564;42.902;25.336;2023-02-26T00:05:06;96029.25;;;13.00;59.19
34297;BME280;20564;42.902;25.336;2023-02-26T00:07:56;96013.50;;;12.92;59.93
34297;BME280;20564;42.902;25.336;2023-02-26T00:11:10;96012.03;;;13.04;58.28
34297;BME280;20564;42.902;25.336;2023-02-26T00:14:27;95967.16;;;12.89;57.95
34297;BME280;20564;42.902;25.336;2023-02-26T00:18:01;95992.69;;;13.18;57.10
34297;BME280;20564;42.902;25.336;2023-02-26T00:28:42;95996.44;;;13.60;54.01
34297;BME280;20564;42.902;25.336;2023-02-26T00:31:39;96010.41;;;13.75;53.49
34297;BME280;20564;42.902;25.336;2023-02-26T00:35:01;96003.97;;;13.85;53.13
34297;BME280;20564;42.902;25.336;2023-02-26T00:40:45;95995.66;;;13.88;52.99
34297;BME280;20564;42.902;25.336;2023-02-26T00:43:16;95985.31;;;13.93;51.93
34297;BME280;20564;42.902;25.336;2023-02-26T00:49:16;95996.78;;;14.00;52.22
34297;BME280;20564;42.902;25.336;2023-02-26T00:52:09;95989.38;;;13.89;52.07
34297;BME280;20564;42.902;25.336;2023-02-26T00:54:42;95984.94;;;13.96;50.76
34297;BME280;20564;42.902;25.336;2023-02-26T00:57:11;95980.75;;;14.02;51.17
34297;BME280;20564;42.902;25.336;2023-02-26T01:03:47;95996.91;;;14.13;49.85
34297;BME280;20564;42.902;25.336;2023-02-26T01:06:45;96003.06;;;14.20;50.26
34297;BME280;20564;42.902;25.336;2023-02-26T01:12:49;95990.84;;;14.19;49.93
34297;BME280;20564;42.902;25.336;2023-02-26T01:16:46;96007.94;;;14.17;50.48
34297;BME280;20564;42.902;25.336;2023-02-26T01:47:03;96019.72;;;13.93;50.74
34297;BME280;20564;42.902;25.336;2023-02-26T01:49:36;96002.84;;;13.94;49.34
34297;BME280;20564;42.902;25.336;2023-02-26T01:55:44;96000.59;;;13.69;50.59
34297;BME280;20564;42.902;25.336;2023-02-26T01:58:48;96008.97;;;13.73;49.87
34297;BME280;20564;42.902;25.336;2023-02-26T02:04:46;96009.63;;;14.03;48.36
34297;BME280;20564;42.902;25.336;2023-02-26T02:07:28;96014.75;;;14.05;48.44
34297;BME280;20564;42.902;25.336;2023-02-26T02:32:50;95985.31;;;13.93;48.98
34297;BME280;20564;42.902;25.336;2023-02-26T02:44:20;96002.47;;;13.97;49.58
34297;BME280;20564;42.902;25.336;2023-02-26T02:58:18;96028.06;;;13.90;50.83
34297;BME280;20564;42.902;25.336;2023-02-26T03:01:50;96037.75;;;13.83;50.97
34297;BME280;20564;42.902;25.336;2023-02-26T03:04:22;96027.53;;;13.80;51.19
34297;BME280;20564;42.902;25.336;2023-02-26T03:09:47;96040.78;;;13.80;52.09
34297;BME280;20564;42.902;25.336;2023-02-26T03:12:32;96028.28;;;13.73;52.88
34297;BME280;20564;42.902;25.336;2023-02-26T03:19:35;96025.25;;;13.55;54.05
34297;BME280;20564;42.902;25.336;2023-02-26T03:23:27;96011.59;;;13.51;52.91
34297;BME280;20564;42.902;25.336;2023-02-26T03:26:42;96003.63;;;13.30;53.55
34297;BME280;20564;42.902;25.336;2023-02-26T03:34:00;96016.19;;;13.43;52.49
34297;BME280;20564;42.902;25.336;2023-02-26T03:37:34;96032.16;;;13.56;52.20
34297;BME280;20564;42.902;25.336;2023-02-26T03:41:17;96014.69;;;13.55;51.27
34297;BME280;20564;42.902;25.336;2023-02-26T03:51:29;96006.75;;;13.77;50.83
34297;BME280;20564;42.902;25.336;2023-02-26T03:54:26;96030.31;;;13.71;50.45
34297;BME280;20564;42.902;25.336;2023-02-26T03:57:08;96035.16;;;13.68;50.30
34297;BME280;20564;42.902;25.336;2023-02-26T04:18:34;96032.03;;;13.43;53.52
34297;BME280;20564;42.902;25.336;2023-02-26T04:22:13;96036.06;;;13.39;53.21
34297;BME280;20564;42.902;25.336;2023-02-26T04:24:13;96012.91;;;13.41;52.55
34297;BME280;20564;42.902;25.336;2023-02-26T04:26:44;96016.56;;;13.40;53.15
34297;BME280;20564;42.902;25.336;2023-02-26T04:33:14;96039.88;;;13.21;54.90
34297;BME280;20564;42.902;25.336;2023-02-26T04:40:08;96044.84;;;13.24;54.76
34297;BME280;20564;42.902;25.336;2023-02-26T04:43:56;96073.22;;;13.22;54.35
34297;BME280;20564;42.902;25.336;2023-02-26T04:47:14;96067.78;;;13.09;54.92
34297;BME280;20564;42.902;25.336;2023-02-26T04:49:42;96043.72;;;13.04;54.32
34297;BME280;20564;42.902;25.336;2023-02-26T04:52:12;96057.28;;;13.16;54.41
34297;BME280;20564;42.902;25.336;2023-02-26T04:54:39;96035.34;;;13.15;54.09
34297;BME280;20564;42.902;25.336;2023-02-26T04:57:06;96041.53;;;13.22;55.52
34297;BME280;20564;42.902;25.336;2023-02-26T04:59:33;96052.84;;;13.16;55.63
34297;BME280;20564;42.902;25.336;2023-02-26T05:02:00;96045.28;;;12.98;55.17
34297;BME280;20564;42.902;25.336;2023-02-26T05:07:54;96063.22;;;13.03;56.45
34297;BME280;20564;42.902;25.336;2023-02-26T05:13:28;96077.53;;;12.94;56.28
34297;BME280;20564;42.902;25.336;2023-02-26T05:15:55;96085.84;;;12.91;55.97
34297;BME280;20564;42.902;25.336;2023-02-26T05:18:25;96086.09;;;12.96;57.04
34297;BME280;20564;42.902;25.336;2023-02-26T05:20:56;96102.28;;;12.93;57.66
34297;BME280;20564;42.902;25.336;2023-02-26T05:23:50;96104.31;;;12.91;58.36
34297;BME280;20564;42.902;25.336;2023-02-26T05:26:25;96112.25;;;12.91;58.86
34297;BME280;20564;42.902;25.336;2023-02-26T05:28:52;96106.91;;;12.76;60.09
34297;BME280;20564;42.902;25.336;2023-02-26T05:31:22;96108.47;;;12.70;60.98
34297;BME280;20564;42.902;25.336;2023-02-26T05:33:49;96124.88;;;12.81;61.85
34297;BME280;20564;42.902;25.336;2023-02-26T05:36:28;96120.22;;;12.83;62.59
34297;BME280;20564;42.902;25.336;2023-02-26T05:39:01;96126.16;;;12.85;63.10
34297;BME280;20564;42.902;25.336;2023-02-26T05:41:31;96133.06;;;12.86;64.64
34297;BME280;20564;42.902;25.336;2023-02-26T05:44:08;96137.44;;;12.78;65.63
34297;BME280;20564;42.902;25.336;2023-02-26T05:46:38;96144.06;;;12.74;66.97
34297;BME280;20564;42.902;25.336;2023-02-26T05:49:05;96133.69;;;12.58;68.66
34297;BME280;20564;42.902;25.336;2023-02-26T05:51:33;96136.94;;;12.60;70.38
34297;BME280;20564;42.902;25.336;2023-02-26T05:54:18;96118.91;;;12.49;71.61
34297;BME280;20564;42.902;25.336;2023-02-26T05:56:45;96114.31;;;12.43;72.81
34297;BME280;20564;42.902;25.336;2023-02-26T05:59:13;96137.28;;;12.57;72.86
34297;BME280;20564;42.902;25.336;2023-02-26T06:01:40;96144.59;;;12.55;72.92
34297;BME280;20564;42.902;25.336;2023-02-26T06:04:11;96134.63;;;12.42;73.90
34297;BME280;20564;42.902;25.336;2023-02-26T06:06:39;96144.06;;;12.37;74.66
34297;BME280;20564;42.902;25.336;2023-02-26T06:09:29;96166.75;;;12.46;75.47
34297;BME280;20564;42.902;25.336;2023-02-26T06:12:40;96162.66;;;12.43;76.08
34297;BME280;20564;42.902;25.336;2023-02-26T06:15:16;96161.13;;;12.49;76.64
34297;BME280;20564;42.902;25.336;2023-02-26T06:17:46;96177.63;;;12.51;76.56
34297;BME280;20564;42.902;25.336;2023-02-26T06:20:16;96182.81;;;12.59;76.85
34297;BME280;20564;42.902;25.336;2023-02-26T06:22:43;96188.44;;;12.56;78.19
34297;BME280;20564;42.902;25.336;2023-02-26T06:25:11;96145.16;;;12.42;78.06
34297;BME280;20564;42.902;25.336;2023-02-26T06:27:38;96157.34;;;12.66;78.05
34297;BME280;20564;42.902;25.336;2023-02-26T06:30:06;96155.00;;;12.71;77.11
34297;BME280;20564;42.902;25.336;2023-02-26T06:32:36;96147.97;;;12.64;77.77
34297;BME280;20564;42.902;25.336;2023-02-26T06:35:12;96146.78;;;12.66;77.58
34297;BME280;20564;42.902;25.336;2023-02-26T06:37:48;96161.66;;;12.82;76.95
34297;BME280;20564;42.902;25.336;2023-02-26T06:40:16;96153.47;;;12.77;77.31
34297;BME280;20564;42.902;25.336;2023-02-26T06:42:43;96154.50;;;12.91;76.81
34297;BME280;20564;42.902;25.336;2023-02-26T06:45:10;96150.56;;;12.87;77.37
34297;BME280;20564;42.902;25.336;2023-02-26T06:47:38;96149.56;;;12.88;77.65
34297;BME280;20564;42.902;25.336;2023-02-26T06:50:08;96141.56;;;12.96;77.17
34297;BME280;20564;42.902;25.336;2023-02-26T06:52:36;96121.50;;;12.87;77.16
34297;BME280;20564;42.902;25.336;2023-02-26T06:55:07;96150.41;;;13.03;77.78
34297;BME280;20564;42.902;25.336;2023-02-26T06:57:41;96134.66;;;12.95;77.77
34297;BME280;20564;42.902;25.336;2023-02-26T07:00:09;96123.28;;;13.09;76.65
34297;BME280;20564;42.902;25.336;2023-02-26T07:02:36;96123.19;;;13.17;76.44
34297;BME280;20564;42.902;25.336;2023-02-26T07:05:07;96124.13;;;13.24;76.17
34297;BME280;20564;42.902;25.336;2023-02-26T07:07:50;96128.19;;;13.27;76.23
34297;BME280;20564;42.902;25.336;2023-02-26T07:10:21;96105.69;;;13.16;74.77
34297;BME280;20564;42.902;25.336;2023-02-26T07:12:59;96118.34;;;13.21;74.79
34297;BME280;20564;42.902;25.336;2023-02-26T07:15:30;96135.28;;;13.41;75.29
34297;BME280;20564;42.902;25.336;2023-02-26T07:18:55;96111.69;;;13.40;75.78
34297;BME280;20564;42.902;25.336;2023-02-26T07:21:22;96103.88;;;13.46;74.50
34297;BME280;20564;42.902;25.336;2023-02-26T07:23:49;96096.72;;;13.62;74.30
34297;BME280;20564;42.902;25.336;2023-02-26T07:26:18;96073.22;;;13.52;73.65
34297;BME280;20564;42.902;25.336;2023-02-26T07:28:45;96092.59;;;13.59;73.83
34297;BME280;20564;42.902;25.336;2023-02-26T07:31:12;96101.81;;;13.63;72.49
34297;BME280;20564;42.902;25.336;2023-02-26T07:33:39;96094.88;;;13.62;72.17
34297;BME280;20564;42.902;25.336;2023-02-26T07:36:06;96103.47;;;13.64;72.17
34297;BME280;20564;42.902;25.336;2023-02-26T07:38:45;96102.38;;;13.59;72.50
34297;BME280;20564;42.902;25.336;2023-02-26T07:41:12;96084.84;;;13.72;71.58
34297;BME280;20564;42.902;25.336;2023-02-26T07:43:46;96088.75;;;13.77;72.16
34297;BME280;20564;42.902;25.336;2023-02-26T07:46:13;96068.97;;;13.72;72.15
34297;BME280;20564;42.902;25.336;2023-02-26T07:48:40;96063.44;;;13.89;71.44
34297;BME280;20564;42.902;25.336;2023-02-26T07:51:10;96065.09;;;13.90;70.88
34297;BME280;20564;42.902;25.336;2023-02-26T07:53:37;96044.75;;;13.90;69.62
34297;BME280;20564;42.902;25.336;2023-02-26T07:56:07;96044.81;;;13.97;70.51
34297;BME280;20564;42.902;25.336;2023-02-26T07:58:37;96047.69;;;14.02;69.33
34297;BME280;20564;42.902;25.336;2023-02-26T08:01:04;96044.66;;;14.05;68.40
34297;BME280;20564;42.902;25.336;2023-02-26T08:03:34;96036.81;;;14.12;67.42
34297;BME280;20564;42.902;25.336;2023-02-26T08:06:03;96013.81;;;14.12;67.65
34297;BME280;20564;42.902;25.336;2023-02-26T08:08:31;96035.56;;;14.14;67.59
34297;BME280;20564;42.902;25.336;2023-02-26T08:11:03;96007.09;;;14.16;67.52
34297;BME280;20564;42.902;25.336;2023-02-26T08:13:30;96030.78;;;14.24;66.30
34297;BME280;20564;42.902;25.336;2023-02-26T08:15:57;96034.09;;;14.33;66.16
34297;BME280;20564;42.902;25.336;2023-02-26T08:18:34;96018.66;;;14.37;65.45
34297;BME280;20564;42.902;25.336;2023-02-26T08:21:04;96012.59;;;14.43;64.77
34297;BME280;20564;42.902;25.336;2023-02-26T08:23:34;96026.00;;;14.63;62.22
34297;BME280;20564;42.902;25.336;2023-02-26T08:26:08;96027.06;;;14.68;62.40
34297;BME280;20564;42.902;25.336;2023-02-26T08:28:36;96039.75;;;14.80;62.02
34297;BME280;20564;42.902;25.336;2023-02-26T08:31:06;96042.66;;;14.85;62.27
34297;BME280;20564;42.902;25.336;2023-02-26T08:33:33;96045.59;;;15.03;60.56
34297;BME280;20564;42.902;25.336;2023-02-26T08:36:55;96050.75;;;15.11;60.47
34297;BME280;20564;42.902;25.336;2023-02-26T08:39:49;96054.44;;;15.24;60.31
34297;BME280;20564;42.902;25.336;2023-02-26T08:42:38;96065.72;;;15.32;59.80
34297;BME280;20564;42.902;25.336;2023-02-26T08:45:12;96041.25;;;15.37;58.69
34297;BME280;20564;42.902;25.336;2023-02-26T08:47:39;96047.34;;;15.31;58.89
34297;BME280;20564;42.902;25.336;2023-02-26T08:50:23;96047.13;;;15.26;59.57
34297;BME280;20564;42.902;25.336;2023-02-26T08:56:31;96027.75;;;15.25;59.55
34297;BME280;20564;42.902;25.336;2023-02-26T08:59:04;96036.53;;;15.26;59.13
34297;BME280;20564;42.902;25.336;2023-02-26T09:01:32;96028.19;;;15.29;59.81
34297;BME280;20564;42.902;25.336;2023-02-26T09:03:59;96020.84;;;15.31;59.19
34297;BME280;20564;42.902;25.336;2023-02-26T09:06:30;96011.47;;;15.35;58.22
34297;BME280;20564;42.902;25.336;2023-02-26T09:09:03;96017.63;;;15.49;58.46
34297;BME280;20564;42.902;25.336;2023-02-26T09:11:40;95995.16;;;15.38;57.79
34297;BME280;20564;42.902;25.336;2023-02-26T09:14:16;96041.28;;;15.50;57.00
34297;BME280;20564;42.902;25.336;2023-02-26T09:16:57;96033.59;;;15.62;54.96
34297;BME280;20564;42.902;25.336;2023-02-26T09:19:41;96002.34;;;15.57;55.65
34297;BME280;20564;42.902;25.336;2023-02-26T09:22:38;96006.44;;;15.60;56.60
34297;BME280;20564;42.902;25.336;2023-02-26T09:25:23;96033.06;;;15.80;56.83
34297;BME280;20564;42.902;25.336;2023-02-26T09:27:56;96042.66;;;15.87;56.97
34297;BME280;20564;42.902;25.336;2023-02-26T09:30:32;96027.56;;;15.95;56.24
34297;BME280;20564;42.902;25.336;2023-02-26T09:33:07;96034.53;;;16.02;56.06
34297;BME280;20564;42.902;25.336;2023-02-26T09:36:09;96036.53;;;15.94;55.49
34297;BME280;20564;42.902;25.336;2023-02-26T09:39:00;96037.78;;;16.04;53.53
34297;BME280;20564;42.902;25.336;2023-02-26T09:41:35;96027.97;;;15.85;54.10
34297;BME280;20564;42.902;25.336;2023-02-26T09:47:56;96043.13;;;16.31;53.19
34297;BME280;20564;42.902;25.336;2023-02-26T09:50:40;96059.66;;;16.39;52.40
34297;BME280;20564;42.902;25.336;2023-02-26T09:53:40;96057.41;;;16.56;51.63
34297;BME280;20564;42.902;25.336;2023-02-26T09:56:44;96056.16;;;16.66;52.01
34297;BME280;20564;42.902;25.336;2023-02-26T10:10:16;96077.22;;;16.14;56.11
34297;BME280;20564;42.902;25.336;2023-02-26T10:20:54;96087.03;;;16.40;55.91
34297;BME280;20564;42.902;25.336;2023-02-26T10:31:17;96088.47;;;16.43;53.51
34297;BME280;20564;42.902;25.336;2023-02-26T10:34:30;96072.53;;;16.49;53.69
34297;BME280;20564;42.902;25.336;2023-02-26T10:50:59;96065.56;;;16.68;54.07
34297;BME280;20564;42.902;25.336;2023-02-26T10:54:03;96047.59;;;16.57;52.51
34297;BME280;20564;42.902;25.336;2023-02-26T10:56:54;96048.81;;;16.48;53.48
34297;BME280;20564;42.902;25.336;2023-02-26T11:00:18;96096.25;;;16.57;53.56
34297;BME280;20564;42.902;25.336;2023-02-26T11:06:20;96037.78;;;16.18;52.70
34297;BME280;20564;42.902;25.336;2023-02-26T11:08:54;96035.31;;;15.96;53.66
34297;BME280;20564;42.902;25.336;2023-02-26T11:12:05;96042.88;;;15.99;54.49
34297;BME280;20564;42.902;25.336;2023-02-26T11:14:36;96053.31;;;16.21;54.29
34297;BME280;20564;42.902;25.336;2023-02-26T11:17:09;96024.72;;;16.23;54.37
34297;BME280;20564;42.902;25.336;2023-02-26T11:19:43;96026.75;;;16.34;55.16
34297;BME280;20564;42.902;25.336;2023-02-26T11:22:25;96020.22;;;16.43;54.46
34297;BME280;20564;42.902;25.336;2023-02-26T11:25:10;96018.56;;;16.49;53.71
34297;BME280;20564;42.902;25.336;2023-02-26T11:31:21;96023.47;;;16.45;54.00
34297;BME280;20564;42.902;25.336;2023-02-26T11:34:26;96025.13;;;16.46;54.50
34297;BME280;20564;42.902;25.336;2023-02-26T11:37:03;96035.13;;;16.44;53.96
34297;BME280;20564;42.902;25.336;2023-02-26T11:39:38;96040.84;;;16.41;53.56
34297;BME280;20564;42.902;25.336;2023-02-26T11:42:09;96064.56;;;16.36;53.26
34297;BME280;20564;42.902;25.336;2023-02-26T11:44:56;96038.81;;;16.43;54.25
34297;BME280;20564;42.902;25.336;2023-02-26T11:47:32;96042.28;;;16.37;54.42
34297;BME280;20564;42.902;25.336;2023-02-26T11:50:13;96044.72;;;16.45;53.41
34297;BME280;20564;42.902;25.336;2023-02-26T11:53:05;96045.97;;;16.49;53.27
34297;BME280;20564;42.902;25.336;2023-02-26T11:58:37;96065.56;;;16.55;53.08
34297;BME280;20564;42.902;25.336;2023-02-26T12:01:12;96062.50;;;16.51;53.38
34297;BME280;20564;42.902;25.336;2023-02-26T12:03:44;96063.50;;;16.63;53.47
34297;BME280;20564;42.902;25.336;2023-02-26T12:07:07;96059.44;;;16.81;52.92
34297;BME280;20564;42.902;25.336;2023-02-26T12:09:13;96068.41;;;16.73;52.91
34297;BME280;20564;42.902;25.336;2023-02-26T12:12:22;96062.69;;;16.70;52.86
34297;BME280;20564;42.902;25.336;2023-02-26T12:21:10;96063.53;;;16.77;53.38
34297;BME280;20564;42.902;25.336;2023-02-26T12:26:54;96086.88;;;16.75;53.40
34297;BME280;20564;42.902;25.336;2023-02-26T12:44:00;96084.78;;;16.17;55.67
34297;BME280;20564;42.902;25.336;2023-02-26T12:49:40;96071.91;;;16.21;54.89
34297;BME280;20564;42.902;25.336;2023-02-26T12:52:17;96095.38;;;16.17;54.85
34297;BME280;20564;42.902;25.336;2023-02-26T13:04:24;96051.66;;;16.20;53.37
34297;BME280;20564;42.902;25.336;2023-02-26T13:20:17;96030.44;;;16.26;53.42
34297;BME280;20564;42.902;25.336;2023-02-26T13:22:56;96035.34;;;16.29;52.73
34297;BME280;20564;42.902;25.336;2023-02-26T13:34:17;96038.59;;;16.18;52.89
34297;BME280;20564;42.902;25.336;2023-02-26T13:36:48;96051.28;;;16.09;54.01
34297;BME280;20564;42.902;25.336;2023-02-26T13:42:56;96049.25;;;16.25;54.09
34297;BME280;20564;42.902;25.336;2023-02-26T13:45:45;96053.91;;;16.23;53.13
34297;BME280;20564;42.902;25.336;2023-02-26T13:48:36;96054.31;;;16.00;53.35
34297;BME280;20564;42.902;25.336;2023-02-26T13:51:33;96062.25;;;15.93;53.79
34297;BME280;20564;42.902;25.336;2023-02-26T13:57:06;96065.16;;;15.98;53.17
34297;BME280;20564;42.902;25.336;2023-02-26T14:06:37;96111.91;;;15.51;54.54
34297;BME280;20564;42.902;25.336;2023-02-26T14:12:22;96131.88;;;15.47;55.29
34297;BME280;20564;42.902;25.336;2023-02-26T14:15:58;96144.13;;;15.48;54.79
34297;BME280;20564;42.902;25.336;2023-02-26T14:24:04;96144.53;;;15.52;55.32
34297;BME280;20564;42.902;25.336;2023-02-26T14:26:35;96154.81;;;15.61;54.95
34297;BME280;20564;42.902;25.336;2023-02-26T14:34:51;96192.38;;;15.65;53.74
34297;BME280;20564;42.902;25.336;2023-02-26T14:37:27;96168.19;;;15.53;53.99
34297;BME280;20564;42.902;25.336;2023-02-26T14:40:09;96144.13;;;15.48;54.77
34297;BME280;20564;42.902;25.336;2023-02-26T14:47:43;96090.91;;;15.56;54.39
34297;BME280;20564;42.902;25.336;2023-02-26T14:50:17;96090.44;;;15.46;54.69
34297;BME280;20564;42.902;25.336;2023-02-26T15:04:13;96070.44;;;15.02;55.62
34297;BME280;20564;42.902;25.336;2023-02-26T15:13:20;96100.44;;;14.75;57.29
34297;BME280;20564;42.902;25.336;2023-02-26T15:24:32;96132.63;;;14.50;59.01
34297;BME280;20564;42.902;25.336;2023-02-26T15:27:04;96137.03;;;14.43;58.81
34297;BME280;20564;42.902;25.336;2023-02-26T15:29:37;96135.41;;;14.42;58.50
34297;BME280;20564;42.902;25.336;2023-02-26T15:32:21;96175.09;;;14.42;59.25
34297;BME280;20564;42.902;25.336;2023-02-26T15:35:03;96164.13;;;14.23;60.48
34297;BME280;20564;42.902;25.336;2023-02-26T15:37:32;96174.88;;;14.22;60.18
34297;BME280;20564;42.902;25.336;2023-02-26T15:40:04;96205.16;;;14.34;59.85
34297;BME280;20564;42.902;25.336;2023-02-26T15:42:34;96188.06;;;14.15;60.64
34297;BME280;20564;42.902;25.336;2023-02-26T15:45:36;96183.03;;;14.20;60.44
34297;BME280;20564;42.902;25.336;2023-02-26T15:48:10;96206.19;;;14.18;60.54
34297;BME280;20564;42.902;25.336;2023-02-26T15:50:43;96205.91;;;14.28;60.51
34297;BME280;20564;42.902;25.336;2023-02-26T15:53:17;96191.16;;;14.19;61.07
34297;BME280;20564;42.902;25.336;2023-02-26T15:55:49;96218.25;;;14.21;60.67
34297;BME280;20564;42.902;25.336;2023-02-26T15:58:39;96226.31;;;14.13;61.10
34297;BME280;20564;42.902;25.336;2023-02-26T16:01:06;96213.88;;;14.13;61.27
34297;BME280;20564;42.902;25.336;2023-02-26T16:03:35;96222.66;;;14.14;61.43
34297;BME280;20564;42.902;25.336;2023-02-26T16:07:05;96259.88;;;14.12;61.48
34297;BME280;20564;42.902;25.336;2023-02-26T16:09:33;96255.31;;;14.06;61.61
34297;BME280;20564;42.902;25.336;2023-02-26T16:12:35;96248.50;;;13.97;62.35
34297;BME280;20564;42.902;25.336;2023-02-26T16:15:10;96243.69;;;13.86;63.04
34297;BME280;20564;42.902;25.336;2023-02-26T16:17:43;96254.53;;;13.91;62.82
34297;BME280;20564;42.902;25.336;2023-02-26T16:20:20;96248.22;;;13.92;63.36
34297;BME280;20564;42.902;25.336;2023-02-26T16:29:51;96241.13;;;13.78;64.38
34297;BME280;20564;42.902;25.336;2023-02-26T16:32:27;96244.31;;;13.73;64.91
34297;BME280;20564;42.902;25.336;2023-02-26T16:42:14;96256.38;;;13.61;65.29
34297;BME280;20564;42.902;25.336;2023-02-26T16:48:39;96289.28;;;13.58;65.87
34297;BME280;20564;42.902;25.336;2023-02-26T16:51:24;96300.13;;;13.63;65.29
34297;BME280;20564;42.902;25.336;2023-02-26T17:00:37;96299.50;;;13.61;65.73
34297;BME280;20564;42.902;25.336;2023-02-26T17:06:22;96304.31;;;13.58;66.11
34297;BME280;20564;42.902;25.336;2023-02-26T17:08:52;96313.34;;;13.63;65.59
34297;BME280;20564;42.902;25.336;2023-02-26T17:11:29;96337.78;;;13.65;65.78
34297;BME280;20564;42.902;25.336;2023-02-26T17:14:24;96334.13;;;13.51;66.20
34297;BME280;20564;42.902;25.336;2023-02-26T17:25:39;96337.69;;;13.59;65.09
34297;BME280;20564;42.902;25.336;2023-02-26T17:31:43;96344.94;;;13.80;64.48
34297;BME280;20564;42.902;25.336;2023-02-26T17:42:51;96338.50;;;13.59;64.77
34297;BME280;20564;42.902;25.336;2023-02-26T17:54:10;96326.50;;;13.71;63.81
34297;BME280;20564;42.902;25.336;2023-02-26T17:57:48;96334.03;;;13.60;64.82
34297;BME280;20564;42.902;25.336;2023-02-26T18:00:32;96345.91;;;13.64;64.09
34297;BME280;20564;42.902;25.336;2023-02-26T18:06:35;96345.00;;;13.71;63.73
34297;BME280;20564;42.902;25.336;2023-02-26T18:09:31;96346.28;;;13.75;64.12
34297;BME280;20564;42.902;25.336;2023-02-26T18:12:13;96340.34;;;13.73;64.14
34297;BME280;20564;42.902;25.336;2023-02-26T18:14:47;96350.94;;;13.73;64.00
34297;BME280;20564;42.902;25.336;2023-02-26T18:17:51;96370.72;;;13.78;63.49
34297;BME280;20564;42.902;25.336;2023-02-26T18:21:00;96356.22;;;13.73;64.10
34297;BME280;20564;42.902;25.336;2023-02-26T18:24:24;96379.00;;;13.74;64.28
34297;BME280;20564;42.902;25.336;2023-02-26T18:31:19;96319.38;;;13.57;64.64
34297;BME280;20564;42.902;25.336;2023-02-26T18:34:19;96319.84;;;13.61;64.62
34297;BME280;20564;42.902;25.336;2023-02-26T18:44:41;96335.47;;;13.47;64.67
34297;BME280;20564;42.902;25.336;2023-02-26T18:48:24;96324.44;;;13.44;65.56
34297;BME280;20564;42.902;25.336;2023-02-26T18:54:35;96356.81;;;13.46;65.13
34297;BME280;20564;42.902;25.336;2023-02-26T18:58:05;96350.91;;;13.59;63.67
34297;BME280;20564;42.902;25.336;2023-02-26T19:01:16;96337.53;;;13.60;64.32
34297;BME280;20564;42.902;25.336;2023-02-26T19:08:12;96352.03;;;13.41;65.49
34297;BME280;20564;42.902;25.336;2023-02-26T19:41:38;96435.31;;;13.14;69.14
34297;BME280;20564;42.902;25.336;2023-02-26T19:49:34;96456.09;;;13.17;69.14
34297;BME280;20564;42.902;25.336;2023-02-26T20:19:06;96465.69;;;12.87;74.02
34297;BME280;20564;42.902;25.336;2023-02-26T20:22:09;96466.50;;;12.88;73.79
34297;BME280;20564;42.902;25.336;2023-02-26T20:25:35;96447.28;;;12.94;73.42
34297;BME280;20564;42.902;25.336;2023-02-26T20:32:45;96466.22;;;12.74;74.55
34297;BME280;20564;42.902;25.336;2023-02-26T20:44:13;96465.53;;;12.81;76.02
34297;BME280;20564;42.902;25.336;2023-02-26T20:59:16;96444.63;;;12.15;77.98
34297;BME280;20564;42.902;25.336;2023-02-26T21:02:40;96485.47;;;12.27;77.92
34297;BME280;20564;42.902;25.336;2023-02-26T21:05:57;96480.38;;;12.34;80.55
34297;BME280;20564;42.902;25.336;2023-02-26T21:17:04;96472.97;;;12.77;79.07
34297;BME280;20564;42.902;25.336;2023-02-26T21:19:53;96463.03;;;12.79;78.33
34297;BME280;20564;42.902;25.336;2023-02-26T21:22:21;96467.34;;;12.80;78.08
34297;BME280;20564;42.902;25.336;2023-02-26T21:24:48;96444.41;;;12.81;77.29
34297;BME280;20564;42.902;25.336;2023-02-26T21:27:49;96462.22;;;12.78;77.46
34297;BME280;20564;42.902;25.336;2023-02-26T21:31:07;96443.69;;;12.87;76.91
34297;BME280;20564;42.902;25.336;2023-02-26T21:33:44;96445.31;;;12.96;76.58
34297;BME280;20564;42.902;25.336;2023-02-26T21:37:11;96427.94;;;13.01;76.33
34297;BME280;20564;42.902;25.336;2023-02-26T21:39:49;96438.03;;;12.98;76.10
34297;BME280;20564;42.902;25.336;2023-02-26T21:54:20;96471.44;;;12.91;75.74
34297;BME280;20564;42.902;25.336;2023-02-26T21:56:59;96503.03;;;13.07;74.97
34297;BME280;20564;42.902;25.336;2023-02-26T22:04:21;96503.88;;;13.08;75.15
34297;BME280;20564;42.902;25.336;2023-02-26T22:10:25;96510.31;;;13.05;74.93
34297;BME280;20564;42.902;25.336;2023-02-26T22:13:27;96497.63;;;13.00;75.88
34297;BME280;20564;42.902;25.336;2023-02-26T22:32:17;96502.84;;;12.77;77.70
34297;BME280;20564;42.902;25.336;2023-02-26T22:57:21;96506.25;;;12.47;82.83
34297;BME280;20564;42.902;25.336;2023-02-26T23:00:20;96518.22;;;12.58;82.59
34297;BME280;20564;42.902;25.336;2023-02-26T23:07:10;96516.56;;;12.65;81.58
34297;BME280;20564;42.902;25.336;2023-02-26T23:10:07;96511.13;;;12.66;82.05
34297;BME280;20564;42.902;25.336;2023-02-26T23:13:04;96503.03;;;12.68;81.41
34297;BME280;20564;42.902;25.336;2023-02-26T23:16:11;96502.41;;;12.58;81.14
34297;BME280;20564;42.902;25.336;2023-02-26T23:19:33;96527.00;;;12.50;82.13
34297;BME280;20564;42.902;25.336;2023-02-26T23:22:35;96532.16;;;12.43;82.82
34297;BME280;20564;42.902;25.336;2023-02-26T23:33:52;96548.81;;;12.27;83.21
34297;BME280;20564;42.902;25.336;2023-02-26T23:37:02;96551.47;;;12.19;83.09
34297;BME280;20564;42.902;25.336;2023-02-26T23:40:03;96552.13;;;12.13;84.38
34297;BME280;20564;42.902;25.336;2023-02-26T23:43:15;96518.00;;;11.95;85.59
34297;BME280;20564;42.902;25.336;2023-02-26T23:49:26;96546.53;;;12.00;85.16
34297;BME280;20564;42.902;25.336;2023-02-26T23:52:05;96550.47;;;12.12;85.01